createdAt,value
2022-08-18T00:00:24.007Z,18.84
2022-08-18T00:03:27.632Z,18.84
2022-08-18T00:06:28.035Z,18.86
2022-08-18T00:09:13.036Z,18.79
2022-08-18T00:12:08.653Z,18.76
2022-08-18T00:14:57.046Z,18.72
2022-08-18T00:17:43.592Z,18.76
2022-08-18T00:20:31.698Z,18.69
2022-08-18T00:23:13.660Z,18.70
2022-08-18T00:26:03.655Z,18.62
2022-08-18T00:28:48.037Z,18.61
2022-08-18T00:31:37.967Z,18.63
2022-08-18T00:34:19.814Z,18.60
2022-08-18T00:37:11.676Z,18.59
2022-08-18T00:39:53.407Z,18.58
2022-08-18T00:42:50.772Z,18.59
2022-08-18T00:45:37.927Z,18.58
2022-08-18T00:48:26.126Z,18.58
2022-08-18T00:51:15.240Z,18.55
2022-08-18T00:54:14.391Z,18.46
2022-08-18T00:57:01.780Z,18.41
2022-08-18T01:00:05.439Z,18.34
2022-08-18T01:02:52.838Z,18.33
2022-08-18T01:05:49.731Z,18.31
2022-08-18T01:08:31.025Z,18.26
2022-08-18T01:11:18.765Z,18.27
2022-08-18T01:14:07.094Z,18.25
2022-08-18T01:17:13.719Z,18.23
2022-08-18T01:20:20.729Z,18.21
2022-08-18T01:23:19.084Z,18.23
2022-08-18T01:26:09.283Z,18.25
2022-08-18T01:28:51.776Z,18.23
2022-08-18T01:31:54.718Z,18.22
2022-08-18T01:34:36.055Z,18.23
2022-08-18T01:37:26.037Z,18.21
2022-08-18T01:41:11.210Z,18.22
2022-08-18T01:43:15.831Z,18.28
2022-08-18T01:45:56.716Z,18.31
2022-08-18T01:48:48.819Z,18.32
2022-08-18T01:51:40.223Z,18.35
2022-08-18T01:54:30.361Z,18.38
2022-08-18T01:57:11.998Z,18.42
2022-08-18T02:00:03.603Z,18.47
2022-08-18T02:03:02.141Z,18.50
2022-08-18T02:05:56.845Z,18.53
2022-08-18T02:08:43.503Z,18.50
2022-08-18T02:11:33.893Z,18.50
2022-08-18T02:14:27.827Z,18.47
2022-08-18T02:17:20.914Z,18.42
2022-08-18T02:20:01.762Z,18.43
2022-08-18T02:22:49.308Z,18.37
2022-08-18T02:25:31.215Z,18.32
2022-08-18T02:28:18.850Z,18.27
2022-08-18T02:30:59.773Z,18.27
2022-08-18T02:33:52.864Z,18.25
2022-08-18T02:39:45.547Z,18.15
2022-08-18T02:42:26.850Z,18.23
2022-08-18T02:45:19.826Z,18.24
2022-08-18T02:48:01.647Z,18.24
2022-08-18T02:50:56.864Z,18.26
2022-08-18T02:53:37.875Z,18.35
2022-08-18T02:59:33.909Z,18.39
2022-08-18T03:02:21.178Z,18.35
2022-08-18T03:05:01.859Z,18.37
2022-08-18T03:07:54.016Z,18.41
2022-08-18T03:10:37.149Z,18.44
2022-08-18T03:13:25.162Z,18.49
2022-08-18T03:16:05.880Z,18.55
2022-08-18T03:18:55.735Z,18.57
2022-08-18T03:21:39.369Z,18.61
2022-08-18T03:24:28.763Z,18.62
2022-08-18T03:27:13.067Z,18.55
2022-08-18T03:30:00.410Z,18.54
2022-08-18T03:32:45.740Z,18.61
2022-08-18T03:35:32.870Z,18.70
2022-08-18T03:38:14.092Z,18.69
2022-08-18T03:41:03.800Z,18.66
2022-08-18T03:43:51.020Z,18.61
2022-08-18T03:46:39.794Z,18.60
2022-08-18T03:49:21.070Z,18.63
2022-08-18T03:52:08.829Z,18.67
2022-08-18T03:54:53.197Z,18.76
2022-08-18T03:57:40.518Z,18.74
2022-08-18T04:00:23.919Z,18.74
2022-08-18T04:03:12.143Z,18.76
2022-08-18T04:05:53.224Z,18.81
2022-08-18T04:08:41.850Z,18.81
2022-08-18T04:11:22.921Z,18.84
2022-08-18T04:14:19.862Z,18.84
2022-08-18T04:17:07.557Z,18.81
2022-08-18T04:19:50.556Z,18.84
2022-08-18T04:22:37.897Z,18.91
2022-08-18T04:25:20.632Z,18.86
2022-08-18T04:28:09.979Z,18.90
2022-08-18T04:30:51.380Z,18.93
2022-08-18T04:33:37.936Z,18.93
2022-08-18T04:39:32.041Z,18.93
2022-08-18T04:42:13.593Z,18.95
2022-08-18T04:45:01.957Z,18.98
2022-08-18T04:47:49.203Z,18.94
2022-08-18T04:50:37.980Z,18.94
2022-08-18T04:53:37.558Z,18.92
2022-08-18T04:56:36.900Z,18.98
2022-08-18T04:59:19.840Z,18.95
2022-08-18T05:02:14.679Z,18.92
2022-08-18T05:04:57.760Z,18.93
2022-08-18T05:07:51.088Z,18.96
2022-08-18T05:10:32.228Z,18.96
2022-08-18T05:13:27.802Z,18.98
2022-08-18T05:16:27.551Z,19.02
2022-08-18T05:19:15.051Z,19.04
2022-08-18T05:22:05.935Z,18.96
2022-08-18T05:24:47.975Z,18.95
2022-08-18T05:27:41.812Z,19.00
2022-08-18T05:30:22.957Z,18.97
2022-08-18T05:33:10.846Z,18.97
2022-08-18T05:36:01.850Z,19.07
2022-08-18T05:39:00.843Z,19.08
2022-08-18T05:41:49.914Z,19.08
2022-08-18T05:44:41.621Z,19.16
2022-08-18T05:47:38.588Z,19.10
2022-08-18T05:50:29.049Z,19.09
2022-08-18T05:53:20.645Z,19.09
2022-08-18T05:56:31.251Z,19.10
2022-08-18T05:59:11.974Z,19.13
2022-08-18T06:02:12.369Z,19.20
2022-08-18T06:05:25.848Z,19.18
2022-08-18T06:08:19.909Z,19.20
2022-08-18T06:11:01.798Z,19.15
2022-08-18T06:14:00.023Z,19.17
2022-08-18T06:17:06.965Z,19.27
2022-08-18T06:20:12.069Z,19.27
2022-08-18T06:23:28.661Z,19.31
2022-08-18T06:26:21.968Z,19.36
2022-08-18T06:29:53.016Z,19.37
2022-08-18T06:33:08.986Z,19.39
2022-08-18T06:36:02.927Z,19.49
2022-08-18T06:38:57.688Z,19.50
2022-08-18T06:41:51.972Z,19.60
2022-08-18T06:44:45.652Z,19.71
2022-08-18T06:47:35.533Z,19.91
2022-08-18T06:50:43.573Z,20.59
2022-08-18T06:54:01.723Z,21.57
2022-08-18T06:56:46.414Z,21.91
2022-08-18T06:59:43.884Z,21.83
2022-08-18T07:02:42.472Z,21.63
2022-08-18T07:05:40.247Z,21.45
2022-08-18T07:08:36.083Z,21.42
2022-08-18T07:11:44.975Z,21.66
2022-08-18T07:14:34.024Z,21.87
2022-08-18T07:17:42.471Z,21.95
2022-08-18T07:20:41.983Z,21.93
2022-08-18T07:23:38.779Z,21.84
2022-08-18T07:26:30.122Z,21.79
2022-08-18T07:29:23.334Z,21.69
2022-08-18T07:32:32.222Z,21.60
2022-08-18T07:35:19.315Z,21.52
2022-08-18T07:38:54.593Z,21.38
2022-08-18T07:42:11.525Z,21.38
2022-08-18T07:45:09.280Z,21.33
2022-08-18T07:48:27.310Z,21.39
2022-08-18T07:51:54.954Z,21.50
2022-08-18T07:54:49.719Z,21.61
2022-08-18T07:57:51.220Z,21.63
2022-08-18T08:00:59.765Z,21.62
2022-08-18T08:03:47.353Z,21.43
2022-08-18T08:06:39.040Z,21.32
2022-08-18T08:09:39.868Z,21.33
2022-08-18T08:12:31.141Z,21.37
2022-08-18T08:15:33.145Z,21.52
2022-08-18T08:18:29.050Z,21.59
2022-08-18T08:21:20.956Z,21.62
2022-08-18T08:24:26.278Z,21.67
2022-08-18T08:27:20.540Z,21.65
2022-08-18T08:30:03.223Z,21.68
2022-08-18T08:33:09.992Z,21.80
2022-08-18T08:36:13.842Z,21.96
2022-08-18T08:39:12.748Z,22.26
2022-08-18T08:42:31.045Z,22.70
2022-08-18T08:45:42.092Z,23.33
2022-08-18T08:48:30.089Z,23.54
2022-08-18T08:51:43.803Z,23.56
2022-08-18T08:54:31.083Z,23.53
2022-08-18T08:57:20.315Z,23.49
2022-08-18T09:00:04.391Z,24.00
2022-08-18T09:03:15.446Z,25.06
2022-08-18T09:06:01.096Z,25.51
2022-08-18T09:08:55.724Z,26.15
2022-08-18T09:11:36.579Z,26.39
2022-08-18T09:15:03.486Z,26.04
2022-08-18T09:18:06.090Z,25.46
2022-08-18T09:20:59.440Z,25.06
2022-08-18T09:23:47.225Z,24.91
2022-08-18T09:26:42.629Z,24.38
2022-08-18T09:29:46.075Z,24.19
2022-08-18T09:32:36.345Z,24.15
2022-08-18T09:35:37.044Z,24.25
2022-08-18T09:38:48.049Z,24.51
2022-08-18T09:41:45.677Z,25.19
2022-08-18T09:45:40.613Z,26.25
2022-08-18T09:48:44.349Z,27.33
2022-08-18T09:51:48.975Z,28.16
2022-08-18T09:54:35.475Z,28.22
2022-08-18T10:00:42.411Z,28.77
2022-08-18T10:03:35.163Z,28.77
2022-08-18T10:06:30.696Z,28.50
2022-08-18T10:13:21.587Z,28.10
2022-08-18T10:17:21.353Z,27.73
2022-08-18T10:24:29.782Z,26.95
2022-08-18T10:27:04.980Z,26.99
2022-08-18T10:30:03.648Z,27.15
2022-08-18T10:32:52.264Z,27.21
2022-08-18T10:35:46.834Z,27.43
2022-08-18T10:38:58.655Z,27.85
2022-08-18T10:42:37.831Z,28.07
2022-08-18T10:45:32.206Z,28.36
2022-08-18T10:48:41.103Z,28.35
2022-08-18T10:55:47.851Z,27.06
2022-08-18T10:59:06.287Z,26.65
2022-08-18T11:05:28.556Z,27.50
2022-08-18T11:08:28.069Z,27.90
2022-08-18T11:11:37.372Z,27.77
2022-08-18T11:15:22.623Z,26.85
2022-08-18T11:18:30.582Z,26.21
2022-08-18T11:21:45.662Z,25.68
2022-08-18T11:24:38.307Z,25.59
2022-08-18T11:27:37.590Z,25.86
2022-08-18T11:30:31.099Z,26.19
2022-08-18T11:33:38.209Z,26.46
2022-08-18T11:36:26.245Z,26.73
2022-08-18T11:39:24.028Z,26.58
2022-08-18T11:42:21.959Z,26.61
2022-08-18T11:45:24.739Z,26.64
2022-08-18T11:48:23.762Z,26.83
2022-08-18T11:51:36.496Z,27.24
2022-08-18T11:54:25.694Z,27.44
2022-08-18T11:58:00.752Z,27.54
2022-08-18T12:00:47.588Z,27.11
2022-08-18T12:03:53.936Z,27.29
2022-08-18T12:06:44.777Z,27.30
2022-08-18T12:10:16.375Z,27.23
2022-08-18T12:13:08.816Z,27.37
2022-08-18T12:16:25.967Z,27.15
2022-08-18T12:19:12.157Z,27.30
2022-08-18T12:22:11.752Z,27.59
2022-08-18T12:25:01.759Z,27.70
2022-08-18T12:27:52.102Z,27.55
2022-08-18T12:30:35.703Z,27.57
2022-08-18T12:33:34.488Z,27.81
2022-08-18T12:36:32.182Z,28.13
2022-08-18T12:39:24.672Z,28.26
2022-08-18T12:42:10.635Z,28.17
2022-08-18T12:45:05.334Z,28.03
2022-08-18T12:47:56.533Z,28.22
2022-08-18T12:50:58.351Z,27.97
2022-08-18T12:53:59.279Z,28.02
2022-08-18T12:56:53.959Z,28.19
2022-08-18T12:59:44.751Z,27.93
2022-08-18T13:02:36.739Z,27.58
2022-08-18T13:05:30.177Z,27.71
2022-08-18T13:08:38.120Z,27.75
2022-08-18T13:11:34.109Z,27.58
2022-08-18T13:14:38.221Z,27.72
2022-08-18T13:17:34.344Z,27.65
2022-08-18T13:20:21.784Z,27.48
2022-08-18T13:23:18.036Z,27.56
2022-08-18T13:26:08.763Z,27.71
2022-08-18T13:28:58.368Z,27.66
2022-08-18T13:31:55.272Z,27.57
2022-08-18T13:34:45.665Z,27.39
2022-08-18T13:37:34.283Z,27.18
2022-08-18T13:40:31.057Z,27.23
2022-08-18T13:43:17.496Z,27.27
2022-08-18T13:46:09.261Z,27.27
2022-08-18T13:48:57.815Z,27.49
2022-08-18T13:51:51.485Z,27.66
2022-08-18T13:54:40.477Z,27.83
2022-08-18T13:57:31.891Z,27.86
2022-08-18T14:00:29.791Z,27.88
2022-08-18T14:03:42.863Z,27.98
2022-08-18T14:06:56.174Z,27.99
2022-08-18T14:09:48.556Z,28.15
2022-08-18T14:12:35.677Z,28.28
2022-08-18T14:15:36.571Z,28.13
2022-08-18T14:18:28.952Z,27.97
2022-08-18T14:21:31.145Z,27.82
2022-08-18T14:24:38.709Z,27.48
2022-08-18T14:27:21.612Z,27.48
2022-08-18T14:30:20.893Z,27.55
2022-08-18T14:33:03.241Z,27.49
2022-08-18T14:36:07.077Z,27.59
2022-08-18T14:38:56.928Z,27.76
2022-08-18T14:41:54.577Z,27.80
2022-08-18T14:44:40.354Z,27.82
2022-08-18T14:47:38.274Z,27.80
2022-08-18T14:50:21.435Z,27.49
2022-08-18T14:53:20.806Z,27.33
2022-08-18T14:56:04.219Z,27.27
2022-08-18T14:58:54.343Z,27.17
2022-08-18T15:01:42.841Z,27.13
2022-08-18T15:04:38.400Z,27.00
2022-08-18T15:07:35.711Z,26.89
2022-08-18T15:10:28.497Z,26.69
2022-08-18T15:13:10.518Z,26.55
2022-08-18T15:16:01.912Z,26.40
2022-08-18T15:18:43.591Z,26.45
2022-08-18T15:21:50.481Z,26.61
2022-08-18T15:24:54.052Z,26.81
2022-08-18T15:27:47.159Z,26.81
2022-08-18T15:30:33.310Z,26.78
2022-08-18T15:33:24.300Z,26.80
2022-08-18T15:36:05.510Z,26.81
2022-08-18T15:39:00.646Z,26.79
2022-08-18T15:41:49.307Z,26.77
2022-08-18T15:44:37.191Z,26.79
2022-08-18T15:47:20.966Z,26.65
2022-08-18T15:50:21.823Z,26.55
2022-08-18T15:53:10.281Z,26.52
2022-08-18T15:56:04.180Z,26.38
2022-08-18T15:58:46.986Z,26.21
2022-08-18T16:01:39.561Z,26.18
2022-08-18T16:04:23.309Z,25.98
2022-08-18T16:07:14.366Z,25.72
2022-08-18T16:09:55.757Z,25.61
2022-08-18T16:12:45.895Z,25.52
2022-08-18T16:15:41.199Z,25.48
2022-08-18T16:18:29.277Z,25.49
2022-08-18T16:21:13.755Z,25.47
2022-08-18T16:24:03.672Z,25.35
2022-08-18T16:26:44.389Z,25.18
2022-08-18T16:29:31.287Z,25.15
2022-08-18T16:32:16.747Z,25.16
2022-08-18T16:35:06.630Z,25.26
2022-08-18T16:37:47.433Z,25.51
2022-08-18T16:40:37.917Z,25.48
2022-08-18T16:43:19.526Z,25.59
2022-08-18T16:46:09.407Z,25.62
2022-08-18T16:48:50.490Z,25.53
2022-08-18T16:51:39.005Z,25.42
2022-08-18T16:54:20.822Z,25.37
2022-08-18T16:57:08.327Z,25.32
2022-08-18T17:00:34.039Z,25.22
2022-08-18T17:03:41.382Z,25.19
2022-08-18T17:06:28.391Z,25.12
2022-08-18T17:09:19.265Z,25.11
2022-08-18T17:12:01.340Z,25.11
2022-08-18T17:14:55.730Z,25.03
2022-08-18T17:17:42.377Z,25.13
2022-08-18T17:20:24.703Z,25.11
2022-08-18T17:23:15.372Z,25.01
2022-08-18T17:25:58.078Z,24.91
2022-08-18T17:28:52.591Z,24.98
2022-08-18T17:31:34.368Z,24.93
2022-08-18T17:34:24.510Z,24.76
2022-08-18T17:37:08.352Z,24.77
2022-08-18T17:40:04.375Z,24.80
2022-08-18T17:42:48.313Z,24.66
2022-08-18T17:45:41.416Z,24.69
2022-08-18T17:48:31.778Z,24.64
2022-08-18T17:51:34.315Z,24.62
2022-08-18T17:54:36.283Z,24.62
2022-08-18T17:57:28.236Z,24.37
2022-08-18T18:00:20.316Z,24.32
2022-08-18T18:03:10.653Z,24.21
2022-08-18T18:06:09.403Z,24.10
2022-08-18T18:08:58.407Z,24.02
2022-08-18T18:11:48.352Z,23.95
2022-08-18T18:14:46.363Z,24.11
2022-08-18T18:17:32.308Z,24.11
2022-08-18T18:20:21.920Z,23.93
2022-08-18T18:23:24.065Z,23.81
2022-08-18T18:26:37.591Z,23.71
2022-08-18T18:29:38.488Z,23.77
2022-08-18T18:32:38.932Z,23.73
2022-08-18T18:35:27.593Z,23.62
2022-08-18T18:38:39.980Z,23.59
2022-08-18T18:41:40.117Z,23.40
2022-08-18T18:44:39.406Z,23.32
2022-08-18T18:47:51.247Z,23.46
2022-08-18T18:51:03.655Z,23.46
2022-08-18T18:54:27.933Z,23.45
2022-08-18T18:57:42.790Z,23.37
2022-08-18T19:00:59.220Z,23.37
2022-08-18T19:04:13.558Z,23.20
2022-08-18T19:07:20.942Z,23.20
2022-08-18T19:10:31.103Z,23.05
2022-08-18T19:13:26.868Z,22.99
2022-08-18T19:16:36.227Z,22.99
2022-08-18T19:19:38.851Z,22.96
2022-08-18T19:23:07.405Z,23.02
2022-08-18T19:26:07.525Z,22.93
2022-08-18T19:29:13.121Z,22.83
2022-08-18T19:32:25.158Z,22.77
2022-08-18T19:35:21.707Z,22.82
2022-08-18T19:38:31.407Z,22.71
2022-08-18T19:41:43.081Z,22.75
2022-08-18T19:45:00.376Z,22.78
2022-08-18T19:47:58.289Z,22.78
2022-08-18T19:51:18.543Z,22.68
2022-08-18T19:54:45.659Z,22.62
2022-08-18T19:58:13.579Z,22.62
2022-08-18T20:01:02.918Z,22.61
2022-08-18T20:04:09.420Z,22.62
2022-08-18T20:07:07.726Z,22.54
2022-08-18T20:10:20.592Z,22.51
2022-08-18T20:13:36.699Z,22.50
2022-08-18T20:16:49.987Z,22.66
2022-08-18T20:19:57.582Z,22.56
2022-08-18T20:22:58.978Z,22.52
2022-08-18T20:25:53.294Z,22.43
2022-08-18T20:28:49.350Z,22.40
2022-08-18T20:31:51.808Z,22.42
2022-08-18T20:34:44.618Z,22.34
2022-08-18T20:37:33.071Z,22.24
2022-08-18T20:40:46.878Z,22.15
2022-08-18T20:43:44.405Z,22.19
2022-08-18T20:47:06.682Z,22.10
2022-08-18T20:50:16.949Z,22.02
2022-08-18T20:53:20.011Z,22.07
2022-08-18T20:56:31.285Z,22.02
2022-08-18T20:59:27.984Z,21.97
2022-08-18T21:02:39.490Z,21.97
2022-08-18T21:05:36.255Z,22.04
2022-08-18T21:08:27.978Z,22.05
2022-08-18T21:11:32.051Z,22.06
2022-08-18T21:14:43.253Z,22.07
2022-08-18T21:17:43.348Z,22.11
2022-08-18T21:20:32.917Z,22.19
2022-08-18T21:23:44.433Z,22.13
2022-08-18T21:26:32.418Z,22.10
2022-08-18T21:29:24.887Z,22.05
2022-08-18T21:32:42.347Z,21.98
2022-08-18T21:35:39.461Z,21.93
2022-08-18T21:38:36.435Z,21.86
2022-08-18T21:41:42.685Z,21.76
2022-08-18T21:47:37.446Z,21.69
2022-08-18T21:50:27.541Z,21.69
2022-08-18T21:53:33.965Z,21.62
2022-08-18T21:56:28.424Z,21.54
2022-08-18T21:59:19.885Z,21.40
2022-08-18T22:02:03.944Z,21.38
2022-08-18T22:04:54.471Z,21.37
2022-08-18T22:07:35.712Z,21.42
2022-08-18T22:10:52.705Z,21.41
2022-08-18T22:13:53.205Z,21.31
2022-08-18T22:16:51.013Z,21.26
2022-08-18T22:19:39.722Z,21.12
2022-08-18T22:22:44.639Z,21.08
2022-08-18T22:25:31.917Z,21.05
2022-08-18T22:28:12.499Z,20.98
2022-08-18T22:31:00.982Z,20.88
2022-08-18T22:33:42.057Z,20.79
2022-08-18T22:36:35.526Z,20.83
2022-08-18T22:39:20.594Z,20.76
2022-08-18T22:42:10.984Z,20.76
2022-08-18T22:44:51.908Z,20.71
2022-08-18T22:47:43.656Z,20.73
2022-08-18T22:50:28.079Z,20.70
2022-08-18T22:53:14.903Z,20.70
2022-08-18T22:55:56.522Z,20.80
2022-08-18T22:58:46.639Z,20.71
2022-08-18T23:01:27.933Z,20.73
2022-08-18T23:04:16.769Z,20.68
2022-08-18T23:06:58.850Z,20.69
2022-08-18T23:09:47.559Z,20.59
2022-08-18T23:12:29.250Z,20.60
2022-08-18T23:15:23.462Z,20.56
2022-08-18T23:18:12.260Z,20.47
2022-08-18T23:20:58.255Z,20.35
2022-08-18T23:23:46.035Z,20.37
2022-08-18T23:26:26.695Z,20.34
2022-08-18T23:29:21.203Z,20.24
2022-08-18T23:32:05.899Z,20.30
2022-08-18T23:34:53.976Z,20.27
2022-08-18T23:37:34.635Z,20.29
2022-08-18T23:40:23.879Z,20.24
2022-08-18T23:43:04.606Z,20.15
2022-08-18T23:45:56.947Z,20.11
2022-08-18T23:48:38.370Z,20.12
2022-08-18T23:51:36.878Z,20.05
2022-08-18T23:54:24.632Z,20.00
2022-08-18T23:57:12.395Z,19.96
2022-08-18T23:59:54.574Z,19.93
